Time;durP1;ratioP1;P1;durP2;ratioP2;P2;SDS_P1;SDS_P2;PMS_P1;PMS_P2;Temp;Humidity;BMP_temperature;BMP_pressure;BME280_temperature;BME280_humidity;BME280_pressure;Samples;Min_cycle;Max_cycle;Signal;HPM_P1;HPM_P2
2021/12/28 00:00:11;;;;;;;27.20;12.98;;;;;;;-10.90;82.31;99276.09;1740939;80;20107;-58
2021/12/28 00:02:40;;;;;;;30.72;12.80;;;;;;;-10.88;82.32;99273.23;1740031;80;21395;-57
2021/12/28 00:05:09;;;;;;;45.73;17.57;;;;;;;-10.88;82.30;99271.97;1724067;81;21105;-57
2021/12/28 00:07:37;;;;;;;34.35;15.08;;;;;;;-10.88;82.31;99261.87;1742887;80;21057;-57
2021/12/28 00:10:06;;;;;;;27.58;12.70;;;;;;;-10.89;82.29;99257.66;1761294;79;21912;-57
2021/12/28 00:12:35;;;;;;;40.48;18.40;;;;;;;-10.89;82.30;99262.70;1762983;79;20915;-57
2021/12/28 00:15:17;;;;;;;25.77;13.72;;;;;;;-10.90;82.27;99253.40;1760555;80;21417;-57
2021/12/28 00:20:19;;;;;;;37.75;16.42;;;;;;;-10.91;82.32;99245.39;1772185;79;20920;-57
2021/12/28 00:22:45;;;;;;;33.18;13.90;;;;;;;-10.90;82.33;99242.05;1752936;80;20890;-57
2021/12/28 00:25:14;;;;;;;31.87;13.08;;;;;;;-10.90;82.31;99238.27;1764611;80;20943;-57
2021/12/28 00:27:42;;;;;;;34.18;13.53;;;;;;;-10.91;82.31;99232.38;1739714;79;21580;-57
2021/12/28 00:30:10;;;;;;;33.15;15.23;;;;;;;-10.93;82.31;99238.18;1807348;77;21057;-57
2021/12/28 00:32:38;;;;;;;25.90;14.20;;;;;;;-10.93;82.32;99248.27;1746336;79;21011;-57
2021/12/28 00:35:06;;;;;;;30.05;13.93;;;;;;;-10.95;82.27;99252.40;1779351;77;20961;-57
2021/12/28 00:37:33;;;;;;;27.55;11.75;;;;;;;-10.96;82.31;99236.83;1805456;77;20941;-58
2021/12/28 00:39:59;;;;;;;45.15;22.32;;;;;;;-10.94;82.39;99246.56;1806224;77;21486;-58
2021/12/28 00:42:27;;;;;;;20.80;10.23;;;;;;;-10.93;82.42;99240.70;1809454;77;21163;-57
2021/12/28 00:44:53;;;;;;;34.18;16.02;;;;;;;-10.92;82.42;99239.87;1757202;77;22581;-57
2021/12/28 00:47:20;;;;;;;39.58;20.20;;;;;;;-10.91;82.42;99250.44;1802591;77;21375;-57
2021/12/28 00:49:47;;;;;;;31.70;14.38;;;;;;;-10.93;82.32;99260.46;1801289;78;20867;-57
2021/12/28 00:52:14;;;;;;;33.13;12.85;;;;;;;-10.95;82.30;99267.52;1803546;78;20864;-57
2021/12/28 00:54:41;;;;;;;43.33;17.77;;;;;;;-10.98;82.26;99263.24;1784146;77;21091;-57
2021/12/28 00:57:07;;;;;;;26.82;13.38;;;;;;;-11.00;82.29;99256.47;1812929;77;21585;-58
2021/12/28 00:59:34;;;;;;;32.58;14.20;;;;;;;-11.02;82.29;99251.77;1795515;77;21045;-57
2021/12/28 01:02:01;;;;;;;31.00;15.35;;;;;;;-11.04;82.32;99250.04;1806261;77;20949;-60
2021/12/28 01:04:28;;;;;;;28.65;11.93;;;;;;;-11.05;82.29;99258.42;1799066;78;21520;-60
2021/12/28 01:06:55;;;;;;;33.88;13.05;;;;;;;-11.05;82.34;99253.80;1803301;77;20957;-57
2021/12/28 01:09:29;;;;;;;35.40;15.63;;;;;;;-11.05;82.37;99252.13;1807183;77;21453;-57
2021/12/28 01:11:51;;;;;;;39.83;18.57;;;;;;;-11.06;82.34;99242.86;1804174;77;20930;-57
2021/12/28 01:14:18;;;;;;;43.78;17.37;;;;;;;-11.08;82.28;99234.38;1814782;77;20930;-57
2021/12/28 01:16:45;;;;;;;35.17;13.48;;;;;;;-11.10;82.28;99232.20;1787122;77;20937;-57
2021/12/28 01:19:12;;;;;;;27.35;13.05;;;;;;;-11.13;82.28;99220.77;1798948;77;21412;-57
2021/12/28 01:21:39;;;;;;;27.27;13.10;;;;;;;-11.12;82.37;99227.52;1736643;78;20994;-60
2021/12/28 01:24:07;;;;;;;23.73;11.20;;;;;;;-11.11;82.44;99209.08;1803674;77;20973;-60
2021/12/28 01:26:34;;;;;;;32.53;15.28;;;;;;;-11.10;82.45;99210.78;1783502;77;20946;-60
2021/12/28 01:29:00;;;;;;;38.48;17.10;;;;;;;-11.07;82.46;99198.27;1726109;80;20947;-59
2021/12/28 01:31:28;;;;;;;27.32;11.90;;;;;;;-11.09;82.39;99199.91;1811314;77;21069;-60
2021/12/28 01:33:55;;;;;;;24.45;11.45;;;;;;;-11.09;82.37;99194.87;1811564;77;21481;-57
2021/12/28 01:36:24;;;;;;;26.05;12.33;;;;;;;-11.11;82.38;99185.55;1780228;78;34868;-58
2021/12/28 01:38:50;;;;;;;;;;;;;;;-11.12;82.38;99167.02;1792885;77;20958;-57
2021/12/28 01:41:17;;;;;;;29.87;12.90;;;;;;;-11.10;82.40;99183.05;1818515;77;20500;-57
2021/12/28 01:43:44;;;;;;;24.90;12.15;;;;;;;-11.08;82.45;99186.48;1806511;77;21055;-59
2021/12/28 01:46:11;;;;;;;21.40;12.45;;;;;;;-11.08;82.42;99176.40;1762235;77;27196;-60
2021/12/28 01:48:42;;;;;;;21.73;12.60;;;;;;;-11.09;82.40;99167.13;1768951;79;21584;-60
2021/12/28 01:51:14;;;;;;;24.87;10.40;;;;;;;-11.09;82.45;99162.09;1754695;80;21069;-60
2021/12/28 01:53:42;;;;;;;22.65;9.85;;;;;;;-11.05;82.59;99161.36;1776295;79;20998;-60
2021/12/28 01:56:13;;;;;;;26.62;12.35;;;;;;;-11.00;82.61;99156.46;1777958;79;21065;-60
2021/12/28 01:58:41;;;;;;;30.20;11.57;;;;;;;-11.00;82.47;99156.46;1730491;80;21486;-60
2021/12/28 02:01:09;;;;;;;27.15;12.35;;;;;;;-10.98;82.50;99152.70;1747657;79;20951;-60
2021/12/28 02:03:39;;;;;;;22.90;11.08;;;;;;;-10.98;82.49;99141.36;1806506;77;20977;-60
2021/12/28 02:06:07;;;;;;;30.60;13.68;;;;;;;-10.95;82.46;99131.36;1799815;77;20901;-59
2021/12/28 02:08:35;;;;;;;30.70;11.80;;;;;;;-10.93;82.41;99142.36;1803047;77;21117;-57
2021/12/28 02:11:02;;;;;;;19.52;9.88;;;;;;;-10.96;82.30;99139.75;1797323;77;20944;-57
2021/12/28 02:13:29;;;;;;;;;;;;;;;-10.96;82.32;99150.69;1799037;77;22173;-57
2021/12/28 02:15:57;;;;;;;27.75;13.10;;;;;;;-11.00;82.29;99144.27;1804286;77;20450;-57
2021/12/28 02:18:26;;;;;;;27.02;12.98;;;;;;;-11.05;82.29;99143.71;1800389;77;20922;-57
2021/12/28 02:20:55;;;;;;;36.90;12.82;;;;;;;-11.09;82.30;99144.45;1804272;77;21076;-57
2021/12/28 02:23:23;;;;;;;23.87;10.55;;;;;;;-11.10;82.23;99117.50;1804544;77;21475;-58
2021/12/28 02:25:50;;;;;;;22.10;10.85;;;;;;;-11.14;82.35;99140.93;1805451;77;20899;-57
2021/12/28 02:28:18;;;;;;;22.42;10.55;;;;;;;-11.16;82.30;99129.94;1801604;77;20995;-58
2021/12/28 02:30:49;;;;;;;36.05;15.72;;;;;;;-11.17;82.37;99122.31;1810941;77;20966;-57
2021/12/28 02:33:17;;;;;;;28.57;13.48;;;;;;;-11.18;82.45;99123.14;1811648;77;21106;-57
2021/12/28 02:35:44;;;;;;;28.35;12.47;;;;;;;-11.19;82.41;99124.80;1786617;78;21301;-57
2021/12/28 02:38:12;;;;;;;38.33;15.60;;;;;;;-11.21;82.35;99120.12;1803515;77;21001;-58
2021/12/28 02:40:42;;;;;;;25.70;12.58;;;;;;;-11.22;82.42;99120.94;1806370;77;21856;-57
2021/12/28 02:43:12;;;;;;;27.55;11.35;;;;;;;-11.22;82.45;99122.20;1792094;78;20950;-57
2021/12/28 02:45:47;;;;;;;38.20;15.13;;;;;;;-11.21;82.45;99110.03;1804288;77;21105;-57
2021/12/28 02:48:17;;;;;;;30.72;15.50;;;;;;;-11.18;82.49;99123.98;1759635;79;21705;-57
2021/12/28 02:50:48;;;;;;;30.60;12.20;;;;;;;-11.19;82.44;99107.16;1738570;81;21405;-57
2021/12/28 02:53:18;;;;;;;29.48;15.55;;;;;;;-11.19;82.43;99112.20;1744457;80;21410;-57
2021/12/28 02:55:46;;;;;;;31.23;13.83;;;;;;;-11.19;82.48;99109.69;1767985;80;20914;-57
2021/12/28 02:58:30;;;;;;;22.42;9.20;;;;;;;-11.18;82.49;99116.42;1771625;79;21741;-57
2021/12/28 03:01:09;;;;;;;35.85;15.23;;;;;;;-11.18;82.45;99111.38;1761496;79;20973;-58
2021/12/28 03:03:38;;;;;;;20.27;7.92;;;;;;;-11.17;82.54;99102.15;1774291;79;20981;-57
2021/12/28 03:06:08;;;;;;;24.40;11.33;;;;;;;-11.15;82.57;99103.06;1737625;81;21427;-57
2021/12/28 03:08:40;;;;;;;37.60;16.93;;;;;;;-11.14;82.53;99090.52;1793553;77;20923;-57
2021/12/28 03:11:08;;;;;;;31.85;11.33;;;;;;;-11.14;82.50;99089.66;1783721;77;21422;-58
2021/12/28 03:13:40;;;;;;;27.25;13.48;;;;;;;-11.16;82.47;99075.74;1811274;77;21423;-57
2021/12/28 03:16:09;;;;;;;37.70;15.65;;;;;;;-11.17;82.41;99074.42;1789180;78;20987;-57
2021/12/28 03:18:37;;;;;;;20.72;10.13;;;;;;;-11.19;82.45;99074.39;1819064;77;20888;-57
2021/12/28 03:21:06;;;;;;;23.42;10.30;;;;;;;-11.20;82.48;99075.22;1796131;77;20968;-58
2021/12/28 03:23:35;;;;;;;19.32;9.23;;;;;;;-11.18;82.55;99067.27;1726194;80;22335;-57
2021/12/28 03:26:02;;;;;;;31.07;14.25;;;;;;;-11.19;82.54;99054.23;1771367;78;20978;-57
2021/12/28 03:28:34;;;;;;;29.20;12.68;;;;;;;-11.19;82.53;99064.31;1766075;79;20968;-57
2021/12/28 03:31:02;;;;;;;28.55;13.72;;;;;;;-11.21;82.48;99064.67;1813048;77;21037;-57
2021/12/28 03:33:32;;;;;;;30.45;15.15;;;;;;;-11.23;82.56;99072.58;1808924;77;20959;-57
2021/12/28 03:35:59;;;;;;;29.40;10.60;;;;;;;-11.25;82.53;99071.70;1799808;77;21041;-57
2021/12/28 03:38:27;;;;;;;28.30;11.15;;;;;;;-11.28;82.54;99069.10;1808504;77;20923;-60
2021/12/28 03:40:54;;;;;;;;;;;;;;;-11.30;82.58;99060.63;1804086;78;20875;-60
2021/12/28 03:43:21;;;;;;;;;;;;;;;-11.30;82.62;99058.11;1804696;77;20090;-60
2021/12/28 03:45:49;;;;;;;20.08;10.93;;;;;;;-11.29;82.69;99053.51;1801159;77;20102;-60
2021/12/28 03:48:17;;;;;;;18.27;9.05;;;;;;;-11.28;82.73;99047.68;1803927;77;21051;-57
2021/12/28 03:50:44;;;;;;;19.85;9.53;;;;;;;-11.27;82.83;99046.86;1814557;77;21492;-58
2021/12/28 03:53:11;;;;;;;25.27;12.60;;;;;;;-11.26;82.83;99039.73;1807247;77;20956;-59
2021/12/28 03:55:37;;;;;;;22.00;11.68;;;;;;;-11.25;82.90;99043.98;1799431;77;20918;-57
2021/12/28 03:58:06;;;;;;;27.60;10.25;;;;;;;-11.21;83.02;99046.17;1797492;77;20928;-60
2021/12/28 04:00:37;;;;;;;27.58;11.63;;;;;;;-11.16;83.26;99037.94;1797637;77;21421;-57
2021/12/28 04:03:04;;;;;;;27.98;11.60;;;;;;;-11.06;83.42;99036.12;1809031;77;20910;-57
2021/12/28 04:05:31;;;;;;;29.35;13.30;;;;;;;-10.95;83.69;99025.46;1794462;77;20925;-57
2021/12/28 04:07:58;;;;;;;26.65;12.18;;;;;;;-10.84;83.85;99029.12;1811263;77;21041;-59
2021/12/28 04:10:31;;;;;;;18.30;9.10;;;;;;;-10.72;83.93;99016.86;1816692;77;20915;-59
2021/12/28 04:12:56;;;;;;;25.72;12.68;;;;;;;-10.59;84.10;99015.08;1774977;78;21480;-57
2021/12/28 04:15:23;;;;;;;23.10;8.73;;;;;;;-10.43;84.42;99029.36;1808337;77;20887;-57
2021/12/28 04:17:50;;;;;;;27.35;11.35;;;;;;;-10.32;84.42;99025.43;1802325;77;21449;-57
2021/12/28 04:20:20;;;;;;;27.00;13.25;;;;;;;-10.20;84.61;99021.89;1814069;76;21018;-57
2021/12/28 04:22:47;;;;;;;38.30;17.77;;;;;;;-10.07;84.58;99031.89;1817190;77;21402;-57
2021/12/28 04:25:17;;;;;;;29.80;13.18;;;;;;;-9.96;84.51;99030.48;1792657;77;21160;-57
2021/12/28 04:27:45;;;;;;;18.52;10.65;;;;;;;-9.89;84.55;99023.88;1770678;78;21109;-57
2021/12/28 04:30:14;;;;;;;27.82;12.70;;;;;;;-9.81;84.56;99022.39;1760682;79;20952;-57
2021/12/28 04:32:43;;;;;;;18.87;9.75;;;;;;;-9.74;84.55;99030.56;1764890;79;20941;-57
2021/12/28 04:35:11;;;;;;;31.87;16.20;;;;;;;-9.67;84.66;99023.11;1736662;80;21035;-57
2021/12/28 04:37:39;;;;;;;27.37;13.55;;;;;;;-9.61;84.53;99021.98;1811143;77;22095;-57
2021/12/28 04:40:09;;;;;;;19.27;10.25;;;;;;;-9.55;84.51;99023.37;1818296;77;21815;-57
2021/12/28 04:42:36;;;;;;;23.60;13.53;;;;;;;-9.48;84.69;99010.91;1805738;77;20946;-58
2021/12/28 04:45:06;;;;;;;19.52;9.75;;;;;;;-9.40;84.80;99002.23;1802194;77;20988;-57
2021/12/28 04:47:33;;;;;;;24.50;11.83;;;;;;;-9.33;84.94;99006.57;1803363;77;20976;-58
2021/12/28 04:50:00;;;;;;;26.45;11.83;;;;;;;-9.28;84.97;98989.83;1795447;78;22033;-57
2021/12/28 04:52:29;;;;;;;25.77;11.50;;;;;;;-9.20;84.95;98995.46;1808665;77;20951;-57
2021/12/28 04:54:55;;;;;;;23.22;10.20;;;;;;;-9.17;85.04;98984.14;1808462;77;20933;-57
2021/12/28 04:57:21;;;;;;;18.45;8.73;;;;;;;-9.13;84.99;98984.24;1807176;77;21925;-57
2021/12/28 04:59:48;;;;;;;26.10;15.55;;;;;;;-9.10;84.97;98982.16;1800582;77;21472;-57
2021/12/28 05:02:15;;;;;;;34.08;12.05;;;;;;;-9.10;84.84;98976.71;1797319;77;21143;-57
2021/12/28 05:04:43;;;;;;;29.63;13.98;;;;;;;-9.09;84.83;98967.44;1799864;77;20932;-57
2021/12/28 05:07:10;;;;;;;35.28;16.02;;;;;;;-9.11;84.74;98966.55;1800869;77;21546;-57
2021/12/28 05:09:37;;;;;;;20.37;10.10;;;;;;;-9.15;84.68;98962.27;1804141;78;21505;-57
2021/12/28 05:12:05;;;;;;;32.53;15.30;;;;;;;-9.17;84.61;98955.06;1807864;77;20913;-57
2021/12/28 05:14:32;;;;;;;22.95;10.15;;;;;;;-9.22;84.56;98962.55;1799082;77;21042;-57
2021/12/28 05:16:59;;;;;;;34.35;17.77;;;;;;;-9.26;84.53;98954.47;1802975;77;20976;-57
2021/12/28 05:19:26;;;;;;;24.32;7.87;;;;;;;-9.32;84.49;98952.68;1799810;78;20831;-57
2021/12/28 05:21:53;;;;;;;32.80;15.88;;;;;;;-9.37;84.48;98944.15;1801847;77;20964;-57
2021/12/28 05:24:19;;;;;;;22.10;12.33;;;;;;;-9.44;84.44;98943.56;1800242;77;20915;-57
2021/12/28 05:26:49;;;;;;;26.33;12.18;;;;;;;-9.47;84.47;98943.52;1792554;77;21574;-57
2021/12/28 05:29:16;;;;;;;22.37;10.25;;;;;;;-9.50;84.51;98943.45;1809550;77;21385;-57
2021/12/28 05:31:43;;;;;;;18.70;7.40;;;;;;;-9.54;84.61;98942.55;1795730;77;20843;-57
2021/12/28 05:34:10;;;;;;;27.25;10.25;;;;;;;-9.57;84.61;98935.32;1808870;77;20904;-57
2021/12/28 05:36:37;;;;;;;26.17;12.68;;;;;;;-9.58;84.66;98938.65;1800985;77;20944;-57
2021/12/28 05:39:05;;;;;;;29.80;13.40;;;;;;;-9.61;84.69;98941.12;1764865;77;21070;-57
2021/12/28 05:41:32;;;;;;;22.73;9.95;;;;;;;-9.63;84.69;98937.70;1805490;77;21416;-58
2021/12/28 05:43:59;;;;;;;21.27;12.73;;;;;;;-9.64;84.77;98938.53;1800443;78;20945;-57
2021/12/28 05:46:26;;;;;;;36.35;15.03;;;;;;;-9.64;84.86;98937.27;1807265;77;20923;-57
2021/12/28 05:48:53;;;;;;;18.20;9.93;;;;;;;-9.64;84.83;98941.06;1778438;78;21426;-57
2021/12/28 05:51:20;;;;;;;30.40;11.68;;;;;;;-9.64;84.89;98922.95;1753041;77;21665;-57
2021/12/28 05:53:47;;;;;;;31.93;14.45;;;;;;;-9.64;84.96;98916.64;1773061;77;28090;-57
2021/12/28 05:56:14;;;;;;;28.90;13.03;;;;;;;-9.65;84.97;98919.16;1803728;77;20914;-57
2021/12/28 05:58:41;;;;;;;21.60;10.45;;;;;;;-9.64;84.98;98923.38;1801610;77;20843;-57
2021/12/28 06:01:08;;;;;;;35.05;15.85;;;;;;;-9.64;85.07;98914.53;1809124;77;21554;-57
2021/12/28 06:03:36;;;;;;;24.15;12.37;;;;;;;-9.63;85.11;98913.69;1779201;78;24358;-57
2021/12/28 06:06:03;;;;;;;25.12;12.50;;;;;;;-9.61;85.19;98909.53;1808157;77;20884;-57
2021/12/28 06:08:30;;;;;;;30.10;14.18;;;;;;;-9.59;85.25;98915.48;1803667;77;20949;-57
2021/12/28 06:10:59;;;;;;;28.05;12.45;;;;;;;-9.57;85.26;98902.47;1818988;77;28256;-59
2021/12/28 06:13:26;;;;;;;33.73;13.60;;;;;;;-9.54;85.33;98920.22;1790635;77;21478;-60
2021/12/28 06:15:53;;;;;;;34.85;16.48;;;;;;;-9.51;85.45;98908.91;1785517;77;21743;-59
2021/12/28 06:18:20;;;;;;;34.00;14.35;;;;;;;-9.49;85.45;98914.84;1799213;77;20947;-59
2021/12/28 06:20:50;;;;;;;35.55;16.70;;;;;;;-9.46;85.46;98918.70;1807201;77;20956;-60
2021/12/28 06:23:17;;;;;;;25.55;13.15;;;;;;;-9.42;85.57;98922.12;1790715;78;21137;-59
2021/12/28 06:25:51;;;;;;;32.93;17.12;;;;;;;-9.38;85.52;98905.80;1779606;78;20984;-59
2021/12/28 06:28:16;;;;;;;35.38;16.52;;;;;;;-9.36;85.49;98914.24;1809886;77;21118;-57
2021/12/28 06:30:43;;;;;;;44.77;17.77;;;;;;;-9.33;85.53;98917.24;1808790;77;21054;-59
2021/12/28 06:33:09;;;;;;;33.08;17.17;;;;;;;-9.31;85.54;98924.03;1780758;79;20919;-58
2021/12/28 06:35:37;;;;;;;34.75;16.62;;;;;;;-9.29;85.51;98921.55;1794732;77;20990;-58
2021/12/28 06:38:03;;;;;;;;;;;;;;;-9.29;85.51;98927.45;1791155;78;20951;-59
2021/12/28 06:40:30;;;;;;;34.50;16.25;;;;;;;-9.27;85.52;98930.88;1795402;78;21055;-58
2021/12/28 06:42:58;;;;;;;23.20;11.90;;;;;;;-9.26;85.54;98916.55;1816480;77;20920;-59
2021/12/28 06:45:26;;;;;;;24.47;12.63;;;;;;;-9.25;85.54;98906.45;1816556;77;20994;-59
2021/12/28 06:47:53;;;;;;;37.63;17.25;;;;;;;-9.25;85.57;98891.28;1823068;77;20963;-59
2021/12/28 06:50:23;;;;;;;;;;;;;;;-9.26;85.53;98899.70;1786413;77;21705;-59
2021/12/28 06:52:51;;;;;;;19.55;9.40;;;;;;;-9.25;85.49;98900.55;1816088;77;21093;-59
2021/12/28 06:55:18;;;;;;;30.52;15.70;;;;;;;-9.25;85.52;98892.95;1805399;77;20974;-60
2021/12/28 06:57:45;;;;;;;31.25;16.82;;;;;;;-9.26;85.54;98879.47;1808880;77;20949;-60
2021/12/28 07:00:16;;;;;;;34.70;15.58;;;;;;;-9.28;85.52;98876.05;1810855;77;20903;-59
2021/12/28 07:02:43;;;;;;;31.00;14.55;;;;;;;-9.30;85.53;98877.72;1805055;77;21457;-59
2021/12/28 07:05:11;;;;;;;29.60;16.82;;;;;;;-9.33;85.67;98870.47;1803708;77;20918;-60
2021/12/28 07:07:39;;;;;;;40.08;18.87;;;;;;;-9.35;85.66;98871.73;1811478;77;20910;-60
2021/12/28 07:10:08;;;;;;;38.78;19.07;;;;;;;-9.34;85.66;98867.09;1808193;77;21005;-60
2021/12/28 07:12:36;;;;;;;41.75;20.25;;;;;;;-9.36;85.68;98862.42;1814104;77;20871;-61
2021/12/28 07:15:04;;;;;;;80.12;49.98;;;;;;;-9.37;85.67;98870.84;1803791;77;20943;-60
2021/12/28 07:17:31;;;;;;;38.75;20.57;;;;;;;-9.41;85.65;98889.28;1743758;79;21090;-60
2021/12/28 07:19:58;;;;;;;37.55;20.20;;;;;;;-9.41;85.67;98881.70;1741837;80;20872;-59
2021/12/28 07:22:25;;;;;;;30.12;14.53;;;;;;;-9.42;85.64;98876.22;1775809;78;20879;-59
2021/12/28 07:24:52;;;;;;;36.83;17.47;;;;;;;-9.41;85.69;98868.21;1775120;79;21439;-59
2021/12/28 07:27:19;;;;;;;46.58;24.57;;;;;;;-9.41;85.79;98869.48;1763637;80;21067;-59
2021/12/28 07:29:46;;;;;;;53.30;28.73;;;;;;;-9.42;85.86;98880.00;1741800;80;21187;-59
2021/12/28 07:32:13;;;;;;;54.33;25.80;;;;;;;-9.36;85.87;98880.11;1797707;77;20890;-59
2021/12/28 07:34:40;;;;;;;60.63;31.97;;;;;;;-9.39;86.07;98887.64;1733274;80;20899;-60
2021/12/28 07:37:07;;;;;;;59.95;30.97;;;;;;;-9.28;86.03;98879.84;1792732;78;20923;-60
2021/12/28 07:39:34;;;;;;;62.65;31.97;;;;;;;-9.24;86.07;98872.77;1803153;77;20883;-59
2021/12/28 07:42:00;;;;;;;60.28;29.60;;;;;;;-9.19;86.10;98884.63;1804094;77;21079;-59
2021/12/28 07:44:27;;;;;;;62.80;34.40;;;;;;;-9.18;86.10;98867.39;1802407;77;20926;-60
2021/12/28 07:46:54;;;;;;;64.92;28.87;;;;;;;-9.17;86.11;98881.31;1743704;80;21001;-59
2021/12/28 07:49:21;;;;;;;119.62;51.60;;;;;;;-9.12;86.09;98887.30;1757680;80;20894;-59
2021/12/28 07:51:49;;;;;;;115.88;46.73;;;;;;;-9.10;86.02;98888.58;1756706;79;20943;-59
2021/12/28 07:54:16;;;;;;;93.80;42.38;;;;;;;-9.08;86.04;98883.14;1774957;79;21156;-59
2021/12/28 07:56:43;;;;;;;62.05;29.37;;;;;;;-9.09;85.95;98871.34;1811614;77;21025;-59
2021/12/28 07:59:10;;;;;;;49.27;27.17;;;;;;;-9.07;86.01;98882.34;1799889;77;20969;-57
2021/12/28 08:01:37;;;;;;;31.57;14.25;;;;;;;-9.03;86.07;98877.76;1816235;77;20900;-57
2021/12/28 08:04:04;;;;;;;45.35;25.45;;;;;;;-8.97;86.04;98865.21;1798856;77;20909;-57
2021/12/28 08:06:31;;;;;;;45.15;25.17;;;;;;;-8.93;86.04;98874.58;1787328;78;21949;-57
2021/12/28 08:08:57;;;;;;;39.70;20.75;;;;;;;-8.89;86.01;98872.52;1817265;77;20948;-58
2021/12/28 08:11:24;;;;;;;52.50;25.57;;;;;;;-8.86;86.02;98866.24;1806607;77;20918;-59
2021/12/28 08:13:52;;;;;;;46.80;20.48;;;;;;;-8.85;86.03;98876.82;1813021;77;20918;-60
2021/12/28 08:16:19;;;;;;;36.48;19.30;;;;;;;-8.81;86.11;98867.59;1777459;77;21434;-59
2021/12/28 08:18:46;;;;;;;45.30;23.60;;;;;;;-8.79;86.15;98871.01;1774501;79;20898;-60
2021/12/28 08:21:15;;;;;;;60.63;31.57;;;;;;;-8.73;86.16;98857.60;1742009;80;20955;-60
2021/12/28 08:23:42;;;;;;;31.70;17.05;;;;;;;-8.69;86.18;98859.34;1806335;77;21004;-60
2021/12/28 08:26:09;;;;;;;53.58;27.62;;;;;;;-8.68;86.17;98853.44;1799330;77;20950;-60
2021/12/28 08:28:36;;;;;;;51.65;27.60;;;;;;;-8.65;86.20;98853.52;1802648;77;20893;-59
2021/12/28 08:31:03;;;;;;;45.92;24.95;;;;;;;-8.60;86.28;98837.96;1808900;77;21068;-59
2021/12/28 08:33:30;;;;;;;;;;;;;;;-8.57;86.29;98840.53;1781496;78;20915;-60
2021/12/28 08:35:57;;;;;;;50.05;25.72;;;;;;;-8.53;86.37;98849.89;1802435;77;20442;-60
2021/12/28 08:38:24;;;;;;;60.43;41.42;;;;;;;-8.46;86.46;98858.00;1765015;79;28728;-60
2021/12/28 08:40:51;;;;;;;;;;;;;;;-8.40;86.43;98860.64;1703966;81;20927;-60
2021/12/28 08:43:18;;;;;;;37.30;19.23;;;;;;;-8.34;86.48;98845.50;1801601;78;21076;-59
2021/12/28 08:45:45;;;;;;;46.48;24.23;;;;;;;-8.25;86.52;98844.78;1766688;79;21470;-59
2021/12/28 08:48:12;;;;;;;48.48;25.75;;;;;;;-8.04;86.53;98840.39;1770624;77;21072;-59
2021/12/28 08:50:41;;;;;;;40.58;20.37;;;;;;;-8.04;86.53;98840.39;1773291;79;20943;-58
2021/12/28 08:53:09;;;;;;;45.15;23.80;;;;;;;-7.94;86.53;98843.49;1813048;77;20993;-58
2021/12/28 08:55:36;;;;;;;44.27;21.87;;;;;;;-7.85;86.54;98839.38;1807142;77;21079;-59
2021/12/28 08:58:03;;;;;;;37.17;21.27;;;;;;;-7.77;86.53;98830.18;1819246;77;20833;-60
2021/12/28 09:00:32;;;;;;;42.23;23.47;;;;;;;-7.69;86.47;98831.12;1808862;77;20937;-58
2021/12/28 09:03:00;;;;;;;50.48;23.30;;;;;;;-7.66;86.42;98824.81;1802972;77;20910;-60
2021/12/28 09:05:35;;;;;;;37.08;19.82;;;;;;;-7.59;86.48;98817.69;1814442;77;20858;-60
2021/12/28 09:08:08;;;;;;;43.55;22.52;;;;;;;-7.53;86.43;98813.98;1802235;77;21274;-59
2021/12/28 09:10:33;;;;;;;50.60;26.10;;;;;;;-7.51;86.38;98805.95;1807792;77;21514;-59
2021/12/28 09:12:59;;;;;;;50.35;27.30;;;;;;;-7.45;86.52;98813.64;1808008;77;20910;-59
2021/12/28 09:15:26;;;;;;;46.90;28.23;;;;;;;-7.38;86.52;98802.29;1805305;77;21466;-59
2021/12/28 09:17:53;;;;;;;49.73;28.40;;;;;;;-7.32;86.61;98796.00;1810093;77;21491;-61
2021/12/28 09:20:24;;;;;;;57.95;29.25;;;;;;;-7.24;86.64;98800.73;1806476;77;21063;-59
2021/12/28 09:22:51;;;;;;;58.10;30.40;;;;;;;-7.21;86.43;98794.41;1748326;79;20923;-59
2021/12/28 09:25:20;;;;;;;53.78;29.12;;;;;;;-7.16;86.50;98797.84;1789616;77;21023;-59
2021/12/28 09:27:47;;;;;;;54.73;27.77;;;;;;;-7.11;86.49;98792.39;1819385;76;20927;-60
2021/12/28 09:30:15;;;;;;;42.00;22.50;;;;;;;-7.06;86.46;98797.06;1810953;77;20919;-58
2021/12/28 09:32:42;;;;;;;;;;;;;;;-7.07;86.35;98797.91;1816463;77;21098;-58
2021/12/28 09:35:10;;;;;;;47.90;27.87;;;;;;;-7.05;86.49;98796.25;1815027;77;20137;-58
2021/12/28 09:37:38;;;;;;;48.75;26.15;;;;;;;-7.01;86.54;98792.88;1815864;77;21421;-58
2021/12/28 09:40:10;;;;;;;55.15;28.90;;;;;;;-6.94;86.63;98789.15;1804250;77;21497;-58
2021/12/28 09:42:37;;;;;;;52.48;27.05;;;;;;;-6.87;86.63;98780.73;1806307;77;21030;-58
2021/12/28 09:45:06;;;;;;;;;;;;;;;-6.82;86.50;98781.61;1813225;77;21145;-58
2021/12/28 09:47:36;;;;;;;58.75;28.00;;;;;;;-6.77;86.53;98791.39;1811035;77;20112;-59
2021/12/28 09:50:06;;;;;;;53.98;30.43;;;;;;;-6.76;86.44;98786.73;1779733;77;20922;-60
2021/12/28 09:52:33;;;;;;;60.73;30.80;;;;;;;-6.73;86.56;98782.94;1803562;77;21032;-60
2021/12/28 09:55:00;;;;;;;62.67;32.80;;;;;;;-6.63;86.69;98787.25;1813832;77;21022;-60
2021/12/28 09:57:28;;;;;;;68.52;31.40;;;;;;;-6.57;86.61;98778.83;1808525;77;22442;-60
2021/12/28 09:59:55;;;;;;;54.88;28.85;;;;;;;-6.53;86.57;98771.21;1815824;77;20914;-59
2021/12/28 10:02:23;;;;;;;51.70;28.15;;;;;;;-6.48;86.53;98772.95;1744050;80;20990;-60
2021/12/28 10:05:09;;;;;;;60.30;29.50;;;;;;;-6.49;86.42;98764.48;1724061;81;20983;-59
2021/12/28 10:07:47;;;;;;;66.22;32.08;;;;;;;-6.44;86.61;98754.33;1726720;81;21536;-58
2021/12/28 10:10:16;;;;;;;51.77;25.90;;;;;;;-6.36;86.61;98761.17;1749150;80;21067;-59
2021/12/28 10:12:48;;;;;;;51.02;29.95;;;;;;;-6.33;86.57;98739.98;1718385;80;20916;-61
2021/12/28 10:15:19;;;;;;;55.75;28.65;;;;;;;-6.27;86.62;98749.33;1740741;80;21062;-59
2021/12/28 10:17:50;;;;;;;46.92;24.02;;;;;;;-6.16;86.64;98744.75;1769164;79;20979;-59
2021/12/28 10:20:24;;;;;;;47.05;26.87;;;;;;;-6.09;86.42;98729.09;1727460;79;20950;-59
2021/12/28 10:22:58;;;;;;;51.98;29.10;;;;;;;-6.11;86.10;98730.77;1737207;80;21100;-59
2021/12/28 10:25:29;;;;;;;52.15;28.12;;;;;;;-6.16;86.19;98724.42;1743960;80;20925;-59
2021/12/28 10:28:01;;;;;;;58.15;30.80;;;;;;;-6.05;86.37;98727.40;1796837;77;20886;-59
2021/12/28 10:30:37;;;;;;;52.40;29.60;;;;;;;-6.01;86.36;98726.16;1806368;77;21473;-59
2021/12/28 10:33:09;;;;;;;43.55;25.92;;;;;;;-5.97;86.37;98735.90;1764933;79;20985;-59
2021/12/28 10:35:46;;;;;;;53.58;29.00;;;;;;;-5.94;86.37;98725.73;1772465;78;21873;-59
2021/12/28 10:38:24;;;;;;;48.42;28.55;;;;;;;-5.91;86.43;98741.84;1762645;79;20971;-59
2021/12/28 10:41:06;;;;;;;61.45;31.02;;;;;;;-5.83;86.29;98719.39;1753448;79;20951;-58
2021/12/28 10:43:37;;;;;;;54.65;29.70;;;;;;;-5.83;86.17;98727.86;1808704;77;20954;-59
2021/12/28 10:46:17;;;;;;;49.77;29.45;;;;;;;-5.82;86.19;98713.05;1781834;78;20923;-59
2021/12/28 10:48:50;;;;;;;51.35;27.27;;;;;;;-5.79;86.15;98695.25;1763497;79;21082;-59
2021/12/28 10:51:27;;;;;;;56.65;30.62;;;;;;;-5.81;86.10;98689.31;1771312;79;21481;-59
2021/12/28 10:56:53;;;;;;;57.88;31.73;;;;;;;-5.98;86.06;98691.01;1806066;77;21051;-58
2021/12/28 10:59:24;;;;;;;55.80;31.62;;;;;;;-5.90;86.35;98691.41;1712077;81;20899;-59
2021/12/28 11:01:53;;;;;;;57.55;34.25;;;;;;;-5.86;86.26;98685.91;1798697;77;21114;-59
2021/12/28 11:04:20;;;;;;;56.30;30.08;;;;;;;-5.84;86.40;98677.86;1785262;77;20907;-59
2021/12/28 11:06:51;;;;;;;;;;;;;;;-5.80;86.25;98679.98;1801971;77;21032;-59
2021/12/28 11:09:25;;;;;;;50.28;28.80;;;;;;;-5.83;86.12;98680.82;1807538;77;20078;-59
2021/12/28 11:11:54;;;;;;;47.45;26.73;;;;;;;-5.91;85.97;98672.33;1808198;77;20939;-59
2021/12/28 11:14:27;;;;;;;48.92;27.37;;;;;;;-5.99;85.94;98653.70;1812850;77;21493;-59
2021/12/28 11:17:02;;;;;;;48.92;28.12;;;;;;;-6.01;86.23;98651.61;1815187;76;20928;-59
2021/12/28 11:19:35;;;;;;;42.83;24.35;;;;;;;-5.98;86.35;98652.87;1746365;80;20990;-59
2021/12/28 11:22:06;;;;;;;52.60;28.32;;;;;;;-6.00;86.29;98643.97;1805250;77;20960;-59
2021/12/28 11:24:39;;;;;;;36.73;17.07;;;;;;;-6.07;86.06;98640.16;1801913;78;20915;-59
2021/12/28 11:27:11;;;;;;;38.73;19.67;;;;;;;-6.07;86.21;98622.37;1806451;77;21136;-58